ADB112 VTBD-VTSP
Flight info
| Callsign | ADB112 |
|---|---|
| Flight time | N/A |
| Altitude | 32000 |
| Route | SABIS3C SABIS Y8 SAVSA SAVSA1D |
| Aircraft | A225/J-SCDFGHIRUWXYZ/LB1 |
Departure
| Time | 2026-05-08 15:26 |
|---|---|
| Airport | Don Mueang International Airport (VTBD) |
Arrival
| Time | N/A |
|---|---|
| Airport | Phuket International Airport (VTSP) |
| Time | Latitude | Longitude | Altitude | Speed | Heading |
|---|---|---|---|---|---|
| 2026-05-08 15:18 | 13.92186 | 100.61632 | 24 ft | 0 kts | 118° |
| 2026-05-08 15:22 | 13.92184 | 100.61637 | 28 ft | 5 kts | 107° |
| 2026-05-08 15:23 | 13.92190 | 100.61658 | 26 ft | 0 kts | 46° |
| 2026-05-08 15:23 | 13.92199 | 100.61667 | 24 ft | 6 kts | 45° |
| 2026-05-08 15:23 | 13.92253 | 100.61712 | 29 ft | 13 kts | 33° |
| 2026-05-08 15:23 | 13.92315 | 100.61721 | 29 ft | 6 kts | 320° |
| 2026-05-08 15:24 | 13.92343 | 100.61673 | 29 ft | 10 kts | 292° |
| 2026-05-08 15:24 | 13.92388 | 100.61583 | 27 ft | 18 kts | 298° |
| 2026-05-08 15:24 | 13.92361 | 100.61499 | 26 ft | 12 kts | 212° |
| 2026-05-08 15:24 | 13.92339 | 100.61486 | 21 ft | 0 kts | 210° |
| 2026-05-08 15:25 | 13.92207 | 100.61411 | 25 ft | 51 kts | 208° |
| 2026-05-08 15:25 | 13.91720 | 100.61144 | 29 ft | 107 kts | 208° |
| 2026-05-08 15:25 | 13.90916 | 100.60698 | 29 ft | 154 kts | 209° |
| 2026-05-08 15:25 | 13.89870 | 100.60087 | 178 ft | 183 kts | 207° |
| 2026-05-08 15:26 | 13.88715 | 100.59408 | 527 ft | 198 kts | 210° |
| 2026-05-08 15:26 | 13.87507 | 100.58642 | 1014 ft | 209 kts | 212° |
| 2026-05-08 15:26 | 13.86263 | 100.57815 | 1617 ft | 216 kts | 215° |
| 2026-05-08 15:26 | 13.85331 | 100.56591 | 2128 ft | 225 kts | 253° |
| 2026-05-08 15:27 | 13.85367 | 100.55000 | 2678 ft | 228 kts | 294° |
| 2026-05-08 15:27 | 13.86382 | 100.53789 | 3213 ft | 228 kts | 334° |
| 2026-05-08 15:27 | 13.87902 | 100.53406 | 3826 ft | 225 kts | 357° |
| 2026-05-08 15:27 | 13.89482 | 100.53328 | 4432 ft | 232 kts | 359° |
| 2026-05-08 15:28 | 13.91152 | 100.53278 | 4914 ft | 247 kts | 359° |
| 2026-05-08 15:28 | 13.92897 | 100.53220 | 5548 ft | 255 kts | 359° |
| 2026-05-08 15:28 | 13.94678 | 100.53135 | 6253 ft | 258 kts | 358° |
| 2026-05-08 15:28 | 13.96456 | 100.52985 | 6963 ft | 260 kts | 355° |
| 2026-05-08 15:29 | 13.98222 | 100.52618 | 7561 ft | 265 kts | 327° |
| 2026-05-08 15:29 | 13.99501 | 100.51471 | 4184 ft | 188 kts | 339° |
| 2026-05-08 15:29 | 13.99830 | 100.51354 | 36 ft | 0 kts | 121° |